createdAt,value
2018-03-03T00:02:16.046Z,14.60
2018-03-03T00:04:42.632Z,11.77
2018-03-03T00:07:09.273Z,15.95
2018-03-03T00:09:35.830Z,14.27
2018-03-03T00:12:02.472Z,13.45
2018-03-03T00:14:29.048Z,12.77
2018-03-03T00:16:56.209Z,15.45
2018-03-03T00:19:22.789Z,12.95
2018-03-03T00:21:49.387Z,15.40
2018-03-03T00:24:15.964Z,15.50
2018-03-03T00:26:42.544Z,15.02
2018-03-03T00:29:09.126Z,14.60
2018-03-03T00:31:35.704Z,16.27
2018-03-03T00:34:02.308Z,15.55
2018-03-03T00:36:28.892Z,15.43
2018-03-03T00:38:55.468Z,14.40
2018-03-03T00:41:22.061Z,16.02
2018-03-03T00:43:48.643Z,16.05
2018-03-03T00:46:15.223Z,15.95
2018-03-03T00:48:41.805Z,15.43
2018-03-03T00:51:08.407Z,14.95
2018-03-03T00:53:35.036Z,14.60
2018-03-03T00:56:01.613Z,15.77
2018-03-03T00:58:28.359Z,14.90
2018-03-03T01:00:54.936Z,17.87
2018-03-03T01:03:21.520Z,16.95
2018-03-03T01:05:48.123Z,16.50
2018-03-03T01:08:14.707Z,15.07
2018-03-03T01:10:41.307Z,15.63
2018-03-03T01:13:08.183Z,15.55
2018-03-03T01:15:34.764Z,16.52
2018-03-03T01:18:01.348Z,16.30
2018-03-03T01:20:28.300Z,15.75
2018-03-03T01:22:54.879Z,13.23
2018-03-03T01:25:21.460Z,17.48
2018-03-03T01:27:48.064Z,15.70
2018-03-03T01:30:14.639Z,16.10
2018-03-03T01:32:41.219Z,15.68
2018-03-03T01:35:07.807Z,17.25
2018-03-03T01:37:34.379Z,17.67
2018-03-03T01:40:00.988Z,17.65
2018-03-03T01:42:27.572Z,15.48
2018-03-03T01:44:54.164Z,15.75
2018-03-03T01:47:20.780Z,16.08
2018-03-03T01:49:47.364Z,14.75
2018-03-03T01:52:13.950Z,17.52
2018-03-03T01:54:40.996Z,15.00
2018-03-03T01:57:07.578Z,16.92
2018-03-03T01:59:34.219Z,16.65
2018-03-03T02:02:00.747Z,16.80
2018-03-03T02:04:27.327Z,15.63
2018-03-03T02:06:53.905Z,16.20
2018-03-03T02:09:20.496Z,16.45
2018-03-03T02:11:47.107Z,15.13
2018-03-03T02:14:13.687Z,15.13
2018-03-03T02:16:40.267Z,14.57
2018-03-03T02:19:06.871Z,16.67
2018-03-03T02:21:33.459Z,14.87
2018-03-03T02:24:00.044Z,15.48
2018-03-03T02:26:26.627Z,15.13
2018-03-03T02:28:53.203Z,14.43
2018-03-03T02:31:19.797Z,15.82
2018-03-03T02:33:46.371Z,16.75
2018-03-03T02:36:12.959Z,13.93
2018-03-03T02:38:39.644Z,16.27
2018-03-03T02:41:06.240Z,13.75
2018-03-03T02:43:32.820Z,16.35
2018-03-03T02:45:59.431Z,16.70
2018-03-03T02:48:26.020Z,15.23
2018-03-03T02:50:52.611Z,17.35
2018-03-03T02:53:19.557Z,15.95
2018-03-03T02:55:46.130Z,17.77
2018-03-03T02:58:12.716Z,14.38
2018-03-03T03:00:39.316Z,16.95
2018-03-03T03:03:05.896Z,13.98
2018-03-03T03:05:32.481Z,15.40
2018-03-03T03:07:59.095Z,15.90
2018-03-03T03:10:25.679Z,15.25
2018-03-03T03:12:52.259Z,15.85
2018-03-03T03:15:18.853Z,16.12
2018-03-03T03:17:45.440Z,15.32
2018-03-03T03:20:12.024Z,15.95
2018-03-03T03:22:38.615Z,16.67
2018-03-03T03:25:05.204Z,15.88
2018-03-03T03:27:31.790Z,14.77
2018-03-03T03:29:58.567Z,15.35
2018-03-03T03:32:25.148Z,16.17
2018-03-03T03:34:51.728Z,15.52
2018-03-03T03:37:18.672Z,13.62
2018-03-03T03:39:45.256Z,15.45
2018-03-03T03:42:11.842Z,15.13
2018-03-03T03:44:38.594Z,15.57
2018-03-03T03:47:05.175Z,15.52
2018-03-03T03:49:31.760Z,17.23
2018-03-03T03:51:58.346Z,16.52
2018-03-03T03:54:24.934Z,16.00
2018-03-03T03:56:51.509Z,15.80
2018-03-03T03:59:18.100Z,15.43
2018-03-03T04:01:44.674Z,17.42
2018-03-03T04:04:11.249Z,16.30
2018-03-03T04:06:37.847Z,17.10
2018-03-03T04:09:04.425Z,17.70
2018-03-03T04:11:31.006Z,16.92
2018-03-03T04:13:57.601Z,14.77
2018-03-03T04:16:24.175Z,17.20
2018-03-03T04:18:50.766Z,16.37
2018-03-03T04:21:17.369Z,18.60
2018-03-03T04:23:43.942Z,15.93
2018-03-03T04:26:10.518Z,20.65
2018-03-03T04:28:37.124Z,16.00
2018-03-03T04:31:03.703Z,15.68
2018-03-03T04:33:30.278Z,17.15
2018-03-03T04:35:56.878Z,16.80
2018-03-03T04:38:23.459Z,16.95
2018-03-03T04:40:50.035Z,16.77
2018-03-03T04:43:16.642Z,16.50
2018-03-03T04:45:43.223Z,17.25
2018-03-03T04:48:09.803Z,16.80
2018-03-03T04:50:36.406Z,18.83
2018-03-03T04:53:02.986Z,20.88
2018-03-03T04:55:29.573Z,17.17
2018-03-03T04:57:56.166Z,17.67
2018-03-03T05:00:28.551Z,15.65
2018-03-03T05:03:01.217Z,18.48
2018-03-03T05:05:32.483Z,17.58
2018-03-03T05:08:00.632Z,14.95
2018-03-03T05:10:27.231Z,16.60
2018-03-03T05:13:01.484Z,18.60
2018-03-03T05:15:43.131Z,16.05
2018-03-03T05:18:15.394Z,16.62
2018-03-03T05:20:47.863Z,15.07
2018-03-03T05:23:20.287Z,17.50
2018-03-03T05:26:01.749Z,18.02
2018-03-03T05:28:34.019Z,18.20
2018-03-03T05:31:06.355Z,17.92
2018-03-03T05:33:38.679Z,16.62
2018-03-03T05:36:11.528Z,15.93
2018-03-03T05:38:42.099Z,15.18
2018-03-03T05:41:11.626Z,17.73
2018-03-03T05:43:53.970Z,20.02
2018-03-03T05:46:26.284Z,16.55
2018-03-03T05:48:58.559Z,15.85
2018-03-03T05:51:30.786Z,18.50
2018-03-03T05:53:58.951Z,17.85
2018-03-03T05:56:31.537Z,15.27
2018-03-03T05:58:59.902Z,16.75
2018-03-03T06:01:32.166Z,17.42
2018-03-03T06:04:18.559Z,15.18
2018-03-03T06:06:45.676Z,16.98
2018-03-03T06:09:24.081Z,16.83
2018-03-03T06:11:50.658Z,17.52
2018-03-03T06:14:17.245Z,15.70
2018-03-03T06:16:43.815Z,16.55
2018-03-03T06:19:10.395Z,17.85
2018-03-03T06:21:37.005Z,17.17
2018-03-03T06:24:03.576Z,17.73
2018-03-03T06:26:30.162Z,18.23
2018-03-03T06:28:57.094Z,18.42
2018-03-03T06:31:23.670Z,16.65
2018-03-03T06:33:50.251Z,18.80
2018-03-03T06:36:17.135Z,18.45
2018-03-03T06:38:43.708Z,17.35
2018-03-03T06:41:10.288Z,17.85
2018-03-03T06:43:36.920Z,17.90
2018-03-03T06:46:03.482Z,16.62
2018-03-03T06:48:30.070Z,17.60
2018-03-03T06:50:56.675Z,19.55
2018-03-03T06:53:23.254Z,16.83
2018-03-03T06:55:49.827Z,16.83
2018-03-03T06:58:16.419Z,18.27
2018-03-03T07:00:42.994Z,15.15
2018-03-03T07:03:09.575Z,17.37
2018-03-03T07:05:36.168Z,15.82
2018-03-03T07:08:02.748Z,19.20
2018-03-03T07:10:29.326Z,17.70
2018-03-03T07:12:56.075Z,18.12
2018-03-03T07:15:24.276Z,15.48
2018-03-03T07:17:50.851Z,18.90
2018-03-03T07:20:17.444Z,18.50
2018-03-03T07:22:44.027Z,19.15
2018-03-03T07:25:10.624Z,15.50
2018-03-03T07:27:37.200Z,18.62
2018-03-03T07:30:03.783Z,18.73
2018-03-03T07:32:30.393Z,17.17
2018-03-03T07:34:56.967Z,17.75
2018-03-03T07:37:23.553Z,17.33
2018-03-03T07:39:50.320Z,19.67
2018-03-03T07:42:16.899Z,16.08
2018-03-03T07:44:43.488Z,18.60
2018-03-03T07:47:10.176Z,16.92
2018-03-03T07:49:36.773Z,19.98
2018-03-03T07:52:03.347Z,18.95
2018-03-03T07:54:30.010Z,17.10
2018-03-03T07:57:02.448Z,20.02
2018-03-03T07:59:29.038Z,19.95
2018-03-03T08:01:55.636Z,19.52
2018-03-03T08:04:22.221Z,14.68
2018-03-03T08:06:48.792Z,15.73
2018-03-03T08:09:15.390Z,18.95
2018-03-03T08:11:41.963Z,16.40
2018-03-03T08:14:08.543Z,17.08
2018-03-03T08:16:35.119Z,18.20
2018-03-03T08:19:01.704Z,19.40
2018-03-03T08:21:28.283Z,17.10
2018-03-03T08:23:54.863Z,20.55
2018-03-03T08:26:21.471Z,16.50
2018-03-03T08:28:48.059Z,17.70
2018-03-03T08:31:14.626Z,17.40
2018-03-03T08:33:41.232Z,17.40
2018-03-03T08:36:07.805Z,17.30
2018-03-03T08:38:34.387Z,17.02
2018-03-03T08:41:00.966Z,17.87
2018-03-03T08:43:27.903Z,22.73
2018-03-03T08:45:54.483Z,19.52
2018-03-03T08:48:21.064Z,18.12
2018-03-03T08:50:47.667Z,17.92
2018-03-03T08:53:14.242Z,17.23
2018-03-03T08:55:40.823Z,18.17
2018-03-03T08:58:07.419Z,17.48
2018-03-03T09:00:34.012Z,16.85
2018-03-03T09:03:00.610Z,16.70
2018-03-03T09:05:27.215Z,18.08
2018-03-03T09:07:53.790Z,17.87
2018-03-03T09:10:20.373Z,17.83
2018-03-03T09:12:46.970Z,16.73
2018-03-03T09:15:14.012Z,17.10
2018-03-03T09:17:40.567Z,18.17
2018-03-03T09:20:07.143Z,18.10
2018-03-03T09:22:33.724Z,18.05
2018-03-03T09:25:00.310Z,17.42
2018-03-03T09:27:26.891Z,16.90
2018-03-03T09:29:53.698Z,18.58
2018-03-03T09:32:20.274Z,16.65
2018-03-03T09:34:46.888Z,18.75
2018-03-03T09:37:13.488Z,18.55
2018-03-03T09:39:40.079Z,18.50
2018-03-03T09:42:07.167Z,18.60
2018-03-03T09:44:33.747Z,18.95
2018-03-03T09:47:00.342Z,18.00
2018-03-03T09:49:26.943Z,18.85
2018-03-03T09:51:53.524Z,19.62
2018-03-03T09:54:20.112Z,18.85
2018-03-03T09:56:46.874Z,21.42
2018-03-03T09:59:14.400Z,18.85
2018-03-03T10:01:43.358Z,17.35
2018-03-03T10:04:07.580Z,19.48
2018-03-03T10:06:34.163Z,18.40
2018-03-03T10:09:00.820Z,17.12
2018-03-03T10:11:27.426Z,17.60
2018-03-03T10:13:54.004Z,17.50
2018-03-03T10:16:20.588Z,19.62
2018-03-03T10:18:47.187Z,20.48
2018-03-03T10:21:13.764Z,18.20
2018-03-03T10:23:40.378Z,17.05
2018-03-03T10:26:06.975Z,18.10
2018-03-03T10:28:33.557Z,16.23
2018-03-03T10:31:00.138Z,16.58
2018-03-03T10:33:26.748Z,18.10
2018-03-03T10:35:53.323Z,16.05
2018-03-03T10:38:19.927Z,16.80
2018-03-03T10:40:46.521Z,16.12
2018-03-03T10:43:13.104Z,16.92
2018-03-03T10:45:39.699Z,16.73
2018-03-03T10:48:06.283Z,17.35
2018-03-03T10:50:32.871Z,17.95
2018-03-03T10:52:59.586Z,15.18
2018-03-03T10:55:26.146Z,16.33
2018-03-03T10:57:52.723Z,16.75
2018-03-03T11:00:25.547Z,15.50
2018-03-03T11:02:52.138Z,17.60
2018-03-03T11:05:18.715Z,16.98
2018-03-03T11:07:45.664Z,17.12
2018-03-03T11:10:12.271Z,13.90
2018-03-03T11:12:38.883Z,16.50
2018-03-03T11:15:05.581Z,16.02
2018-03-03T11:17:32.169Z,15.38
2018-03-03T11:19:58.759Z,15.65
2018-03-03T11:22:25.348Z,16.42
2018-03-03T11:24:52.822Z,17.12
2018-03-03T11:27:19.414Z,15.82
2018-03-03T11:29:45.995Z,16.70
2018-03-03T11:32:12.727Z,16.10
2018-03-03T11:34:39.287Z,15.13
2018-03-03T11:37:05.863Z,15.70
2018-03-03T11:39:32.479Z,15.63
2018-03-03T11:41:59.062Z,15.60
2018-03-03T11:44:25.637Z,29.60
2018-03-03T11:46:52.234Z,14.77
2018-03-03T11:49:18.816Z,15.77
2018-03-03T11:51:45.399Z,13.82
2018-03-03T11:54:12.361Z,13.65
2018-03-03T11:56:38.950Z,13.43
2018-03-03T11:59:05.738Z,14.77
2018-03-03T12:01:32.344Z,14.48
2018-03-03T12:03:58.923Z,13.20
2018-03-03T12:06:25.502Z,13.70
2018-03-03T12:08:52.102Z,12.88
2018-03-03T12:11:18.688Z,12.73
2018-03-03T12:13:45.275Z,14.70
2018-03-03T12:16:11.862Z,15.18
2018-03-03T12:18:38.441Z,14.45
2018-03-03T12:21:05.025Z,14.63
2018-03-03T12:23:31.622Z,13.40
2018-03-03T12:25:58.200Z,12.93
2018-03-03T12:28:24.780Z,15.10
2018-03-03T12:30:51.591Z,14.30
2018-03-03T12:33:18.162Z,14.33
2018-03-03T12:35:44.746Z,13.27
2018-03-03T12:38:11.333Z,13.70
2018-03-03T12:40:37.899Z,13.37
2018-03-03T12:43:04.495Z,14.10
2018-03-03T12:45:31.071Z,14.47
2018-03-03T12:47:57.642Z,14.13
2018-03-03T12:50:24.242Z,13.30
2018-03-03T12:52:50.827Z,14.37
2018-03-03T12:55:17.406Z,11.90
2018-03-03T12:57:44.019Z,12.80
2018-03-03T13:00:10.606Z,12.80
2018-03-03T13:02:37.176Z,13.33
2018-03-03T13:05:03.771Z,13.00
2018-03-03T13:07:30.347Z,13.50
2018-03-03T13:09:56.931Z,13.93
2018-03-03T13:12:23.537Z,13.33
2018-03-03T13:14:50.125Z,14.67
2018-03-03T13:17:16.703Z,15.47
2018-03-03T13:19:43.291Z,16.00
2018-03-03T13:24:43.071Z,15.80
2018-03-03T13:27:09.811Z,18.47
2018-03-03T13:29:36.387Z,18.50
2018-03-03T13:32:02.960Z,17.40
2018-03-03T13:34:29.556Z,14.60
2018-03-03T13:36:56.126Z,15.53
2018-03-03T13:39:22.715Z,16.13
2018-03-03T13:41:49.315Z,15.37
2018-03-03T13:44:15.898Z,16.03
2018-03-03T13:46:42.475Z,15.70
2018-03-03T13:49:09.080Z,16.60
2018-03-03T13:51:35.664Z,15.77
2018-03-03T13:54:02.263Z,16.67
2018-03-03T13:56:28.858Z,15.93
2018-03-03T13:58:55.435Z,15.80
2018-03-03T14:01:22.023Z,16.23
2018-03-03T14:03:48.944Z,15.40
2018-03-03T14:06:15.643Z,16.00
2018-03-03T14:08:42.228Z,15.17
2018-03-03T14:11:08.990Z,17.07
2018-03-03T14:13:35.571Z,17.50
2018-03-03T14:16:02.147Z,16.70
2018-03-03T14:18:28.766Z,15.70
2018-03-03T14:20:55.348Z,15.80
2018-03-03T14:23:21.949Z,14.73
2018-03-03T14:25:48.523Z,15.90
2018-03-03T14:28:15.100Z,16.10
2018-03-03T14:30:41.678Z,14.83
2018-03-03T14:33:08.510Z,15.60
2018-03-03T14:35:35.082Z,15.40
2018-03-03T14:38:01.659Z,16.00
2018-03-03T14:40:28.406Z,17.50
2018-03-03T14:42:54.987Z,17.33
2018-03-03T14:45:21.563Z,15.90
2018-03-03T14:47:48.171Z,16.90
2018-03-03T14:50:14.756Z,17.30
2018-03-03T14:52:41.342Z,16.30
2018-03-03T14:55:08.227Z,15.30
2018-03-03T14:57:34.808Z,16.07
2018-03-03T15:00:01.428Z,16.40
2018-03-03T15:02:28.016Z,16.53
2018-03-03T15:04:54.596Z,18.37
2018-03-03T15:07:21.193Z,16.47
2018-03-03T15:09:47.943Z,17.27
2018-03-03T15:12:14.521Z,21.57
2018-03-03T15:14:41.139Z,17.83
2018-03-03T15:17:08.056Z,16.30
2018-03-03T15:19:34.657Z,17.50
2018-03-03T15:22:01.239Z,18.57
2018-03-03T15:24:27.836Z,16.00
2018-03-03T15:26:54.414Z,15.40
2018-03-03T15:29:21.019Z,15.57
2018-03-03T15:31:47.592Z,15.13
2018-03-03T15:34:14.167Z,15.40
2018-03-03T15:36:40.743Z,17.23
2018-03-03T15:39:07.330Z,15.50
2018-03-03T15:41:33.927Z,17.10
2018-03-03T15:44:00.539Z,15.83
2018-03-03T15:46:27.104Z,15.97
2018-03-03T15:48:53.910Z,15.20
2018-03-03T15:51:20.596Z,15.70
2018-03-03T15:53:47.175Z,15.90
2018-03-03T15:56:13.767Z,15.90
2018-03-03T15:58:40.354Z,14.50
2018-03-03T16:01:06.952Z,15.60
2018-03-03T16:03:33.551Z,14.80
2018-03-03T16:06:00.149Z,16.48
2018-03-03T16:08:26.754Z,17.65
2018-03-03T16:10:53.331Z,15.32
2018-03-03T16:13:19.912Z,17.05
2018-03-03T16:15:46.567Z,16.73
2018-03-03T16:18:13.147Z,16.95
2018-03-03T16:20:39.747Z,18.98
2018-03-03T16:23:06.608Z,21.35
2018-03-03T16:25:33.191Z,18.92
2018-03-03T16:27:59.762Z,16.50
2018-03-03T16:30:26.335Z,15.95
2018-03-03T16:32:52.936Z,16.60
2018-03-03T16:35:19.620Z,15.82
2018-03-03T16:37:46.212Z,16.15
2018-03-03T16:40:12.800Z,15.38
2018-03-03T16:42:39.403Z,16.55
2018-03-03T16:45:05.974Z,14.60
2018-03-03T16:47:32.555Z,16.10
2018-03-03T16:49:59.144Z,15.90
2018-03-03T16:52:25.727Z,14.40
2018-03-03T16:54:52.305Z,14.30
2018-03-03T16:57:18.892Z,16.08
2018-03-03T16:59:45.476Z,15.98
2018-03-03T17:02:12.148Z,18.10
2018-03-03T17:04:39.120Z,16.08
2018-03-03T17:07:05.699Z,16.40
2018-03-03T17:09:32.287Z,16.45
2018-03-03T17:11:58.871Z,15.88
2018-03-03T17:14:25.452Z,15.40
2018-03-03T17:16:52.101Z,15.88
2018-03-03T17:19:18.679Z,17.08
2018-03-03T17:21:45.257Z,17.52
2018-03-03T17:24:11.865Z,14.25
2018-03-03T17:26:38.449Z,17.20
2018-03-03T17:29:05.037Z,17.30
2018-03-03T17:31:31.619Z,16.80
2018-03-03T17:33:58.255Z,16.20
2018-03-03T17:36:24.867Z,16.52
2018-03-03T17:38:51.808Z,16.73
2018-03-03T17:41:18.382Z,16.02
2018-03-03T17:43:44.962Z,15.60
2018-03-03T17:46:11.551Z,17.15
2018-03-03T17:48:38.144Z,17.10
2018-03-03T17:51:05.002Z,17.10
2018-03-03T17:53:31.584Z,16.75
2018-03-03T17:55:58.152Z,15.90
2018-03-03T17:58:24.764Z,15.70
2018-03-03T18:00:51.351Z,16.45
2018-03-03T18:03:17.937Z,16.58
2018-03-03T18:05:44.547Z,18.48
2018-03-03T18:08:11.138Z,17.40
2018-03-03T18:10:37.708Z,16.37
2018-03-03T18:13:04.300Z,17.80
2018-03-03T18:15:31.056Z,16.73
2018-03-03T18:17:57.628Z,15.95
2018-03-03T18:20:24.236Z,16.77
2018-03-03T18:22:50.852Z,17.45
2018-03-03T18:25:17.421Z,17.15
2018-03-03T18:27:44.003Z,17.35
2018-03-03T18:30:10.611Z,16.17
2018-03-03T18:32:37.194Z,15.25
2018-03-03T18:35:03.768Z,16.62
2018-03-03T18:37:30.695Z,16.77
2018-03-03T18:39:57.287Z,15.55
2018-03-03T18:42:24.676Z,17.23
2018-03-03T18:44:51.288Z,18.25
2018-03-03T18:47:17.875Z,17.98
2018-03-03T18:49:44.455Z,17.95
2018-03-03T18:52:11.035Z,16.62
2018-03-03T18:54:37.641Z,17.33
2018-03-03T18:57:04.224Z,17.98
2018-03-03T18:59:30.801Z,19.60
2018-03-03T19:01:57.713Z,18.30
2018-03-03T19:04:24.279Z,21.30
2018-03-03T19:06:50.864Z,18.60
2018-03-03T19:09:17.447Z,21.12
2018-03-03T19:11:44.023Z,18.77
2018-03-03T19:16:44.435Z,20.35
2018-03-03T19:19:11.021Z,24.75
2018-03-03T19:21:37.596Z,25.80
2018-03-03T19:24:04.280Z,23.02
2018-03-03T19:26:30.860Z,23.30
2018-03-03T19:28:57.440Z,21.60
2018-03-03T19:31:24.032Z,20.02
2018-03-03T19:33:50.665Z,22.17
2018-03-03T19:36:17.193Z,19.83
2018-03-03T19:38:43.801Z,21.15
2018-03-03T19:41:10.386Z,22.58
2018-03-03T19:43:36.976Z,21.02
2018-03-03T19:46:03.563Z,19.02
2018-03-03T19:48:30.156Z,21.08
2018-03-03T19:50:56.725Z,22.15
2018-03-03T19:53:23.323Z,22.23
2018-03-03T19:55:49.904Z,22.95
2018-03-03T19:58:16.486Z,20.33
2018-03-03T20:00:43.095Z,20.27
2018-03-03T20:03:09.676Z,20.50
2018-03-03T20:05:36.242Z,21.98
2018-03-03T20:08:02.847Z,22.37
2018-03-03T20:10:29.432Z,21.42
2018-03-03T20:12:56.004Z,22.80
2018-03-03T20:15:22.591Z,20.75
2018-03-03T20:17:49.167Z,20.17
2018-03-03T20:20:16.044Z,22.23
2018-03-03T20:22:42.625Z,22.85
2018-03-03T20:25:09.212Z,26.83
2018-03-03T20:27:36.150Z,22.85
2018-03-03T20:30:02.721Z,21.60
2018-03-03T20:32:29.312Z,22.87
2018-03-03T20:34:55.900Z,21.80
2018-03-03T20:37:22.479Z,23.27
2018-03-03T20:39:49.059Z,21.80
2018-03-03T20:42:15.648Z,21.10
2018-03-03T20:44:42.228Z,22.60
2018-03-03T20:47:08.802Z,22.30
2018-03-03T20:49:35.399Z,19.30
2018-03-03T20:52:01.989Z,22.73
2018-03-03T20:54:28.559Z,20.45
2018-03-03T20:56:55.143Z,21.70
2018-03-03T20:59:21.735Z,22.55
2018-03-03T21:01:48.316Z,20.85
2018-03-03T21:04:14.903Z,21.87
2018-03-03T21:06:41.480Z,22.37
2018-03-03T21:09:08.067Z,20.15
2018-03-03T21:11:49.565Z,25.37
2018-03-03T21:14:16.148Z,20.70
2018-03-03T21:16:42.727Z,22.20
2018-03-03T21:19:09.325Z,21.12
2018-03-03T21:21:35.909Z,20.42
2018-03-03T21:24:02.480Z,21.25
2018-03-03T21:26:29.162Z,21.33
2018-03-03T21:28:55.784Z,21.37
2018-03-03T21:31:22.362Z,19.95
2018-03-03T21:33:48.963Z,20.80
2018-03-03T21:36:15.539Z,22.37
2018-03-03T21:38:42.119Z,19.15
2018-03-03T21:41:08.709Z,19.85
2018-03-03T21:43:35.285Z,19.92
2018-03-03T21:46:01.882Z,21.17
2018-03-03T21:48:28.458Z,20.33
2018-03-03T21:50:55.035Z,20.35
2018-03-03T21:53:21.636Z,20.25
2018-03-03T21:55:48.218Z,21.25
2018-03-03T21:58:14.800Z,20.85
2018-03-03T22:00:41.388Z,19.83
2018-03-03T22:03:07.972Z,22.05
2018-03-03T22:05:34.576Z,20.45
2018-03-03T22:08:01.176Z,19.80
2018-03-03T22:10:27.767Z,20.23
2018-03-03T22:12:54.351Z,17.15
2018-03-03T22:15:20.947Z,16.65
2018-03-03T22:17:47.527Z,18.50
2018-03-03T22:20:14.177Z,17.62
2018-03-03T22:22:40.923Z,18.52
2018-03-03T22:25:07.504Z,28.60
2018-03-03T22:27:34.104Z,19.65
2018-03-03T22:30:00.689Z,19.58
2018-03-03T22:32:27.268Z,18.35
2018-03-03T22:34:53.867Z,18.80
2018-03-03T22:37:20.442Z,18.35
2018-03-03T22:39:47.037Z,19.83
2018-03-03T22:42:13.648Z,15.52
2018-03-03T22:44:40.234Z,19.92
2018-03-03T22:47:07.080Z,19.75
2018-03-03T22:49:33.931Z,18.55
2018-03-03T22:52:00.507Z,20.48
2018-03-03T22:54:27.088Z,18.12
2018-03-03T22:56:53.691Z,19.35
2018-03-03T22:59:20.267Z,16.98
2018-03-03T23:01:46.851Z,17.60
2018-03-03T23:04:13.452Z,20.50
2018-03-03T23:06:41.064Z,16.83
2018-03-03T23:09:07.643Z,19.45
2018-03-03T23:11:34.567Z,17.40
2018-03-03T23:14:01.147Z,18.55
2018-03-03T23:16:27.722Z,17.55
2018-03-03T23:18:54.331Z,17.75
2018-03-03T23:21:20.911Z,17.15
2018-03-03T23:23:47.496Z,17.10
2018-03-03T23:26:14.080Z,17.62
2018-03-03T23:28:40.663Z,18.40
2018-03-03T23:31:07.355Z,19.52
2018-03-03T23:33:33.932Z,17.37
2018-03-03T23:36:00.506Z,20.00
2018-03-03T23:38:27.108Z,17.83
2018-03-03T23:40:53.695Z,17.90
2018-03-03T23:43:20.274Z,17.55
2018-03-03T23:45:46.879Z,16.95
2018-03-03T23:48:13.471Z,16.35
2018-03-03T23:50:40.057Z,24.70
2018-03-03T23:53:06.642Z,18.17
2018-03-03T23:55:33.227Z,16.80
2018-03-03T23:57:59.812Z,15.73
